sensor_id;sensor_type;location;lat;lon;timestamp;P1;durP1;ratioP1;P2;durP2;ratioP2
25341;SDS011;13298;48.792;9.154;2023-02-15T00:00:21;33.92;;;18.85;;
25341;SDS011;13298;48.792;9.154;2023-02-15T00:02:46;35.55;;;19.02;;
25341;SDS011;13298;48.792;9.154;2023-02-15T00:05:12;37.58;;;20.52;;
25341;SDS011;13298;48.792;9.154;2023-02-15T00:07:38;34.55;;;19.45;;
25341;SDS011;13298;48.792;9.154;2023-02-15T00:10:04;34.65;;;19.50;;
25341;SDS011;13298;48.792;9.154;2023-02-15T00:12:30;33.90;;;19.20;;
25341;SDS011;13298;48.792;9.154;2023-02-15T00:14:56;34.05;;;19.30;;
25341;SDS011;13298;48.792;9.154;2023-02-15T00:17:22;37.45;;;18.77;;
25341;SDS011;13298;48.792;9.154;2023-02-15T00:19:47;36.40;;;19.70;;
25341;SDS011;13298;48.792;9.154;2023-02-15T00:22:13;34.78;;;19.08;;
25341;SDS011;13298;48.792;9.154;2023-02-15T00:24:39;34.05;;;18.92;;
25341;SDS011;13298;48.792;9.154;2023-02-15T00:27:04;30.60;;;18.50;;
25341;SDS011;13298;48.792;9.154;2023-02-15T00:29:30;35.08;;;18.58;;
25341;SDS011;13298;48.792;9.154;2023-02-15T00:31:56;30.70;;;18.13;;
25341;SDS011;13298;48.792;9.154;2023-02-15T00:34:23;33.33;;;19.23;;
25341;SDS011;13298;48.792;9.154;2023-02-15T00:36:50;34.72;;;18.95;;
25341;SDS011;13298;48.792;9.154;2023-02-15T00:39:17;33.83;;;18.65;;
25341;SDS011;13298;48.792;9.154;2023-02-15T00:41:43;35.25;;;19.98;;
25341;SDS011;13298;48.792;9.154;2023-02-15T00:44:10;35.20;;;19.52;;
25341;SDS011;13298;48.792;9.154;2023-02-15T00:46:36;32.20;;;18.75;;
25341;SDS011;13298;48.792;9.154;2023-02-15T00:49:02;31.80;;;18.67;;
25341;SDS011;13298;48.792;9.154;2023-02-15T00:51:28;34.85;;;19.13;;
25341;SDS011;13298;48.792;9.154;2023-02-15T00:53:54;32.97;;;18.50;;
25341;SDS011;13298;48.792;9.154;2023-02-15T00:56:20;31.23;;;18.55;;
25341;SDS011;13298;48.792;9.154;2023-02-15T00:58:46;33.22;;;18.67;;
25341;SDS011;13298;48.792;9.154;2023-02-15T01:01:18;33.10;;;18.20;;
25341;SDS011;13298;48.792;9.154;2023-02-15T01:03:45;31.60;;;18.77;;
25341;SDS011;13298;48.792;9.154;2023-02-15T01:06:11;36.53;;;19.23;;
25341;SDS011;13298;48.792;9.154;2023-02-15T01:08:39;31.48;;;17.50;;
25341;SDS011;13298;48.792;9.154;2023-02-15T01:11:06;37.22;;;19.23;;
25341;SDS011;13298;48.792;9.154;2023-02-15T01:13:35;31.75;;;17.80;;
25341;SDS011;13298;48.792;9.154;2023-02-15T01:16:01;31.05;;;18.10;;
25341;SDS011;13298;48.792;9.154;2023-02-15T01:18:28;31.05;;;17.45;;
25341;SDS011;13298;48.792;9.154;2023-02-15T01:20:54;35.63;;;18.48;;
25341;SDS011;13298;48.792;9.154;2023-02-15T01:23:20;33.47;;;19.33;;
25341;SDS011;13298;48.792;9.154;2023-02-15T01:25:46;38.05;;;19.67;;
25341;SDS011;13298;48.792;9.154;2023-02-15T01:28:12;33.60;;;19.05;;
25341;SDS011;13298;48.792;9.154;2023-02-15T01:30:38;33.58;;;18.58;;
25341;SDS011;13298;48.792;9.154;2023-02-15T01:33:04;40.90;;;19.67;;
25341;SDS011;13298;48.792;9.154;2023-02-15T01:35:30;34.83;;;19.63;;
25341;SDS011;13298;48.792;9.154;2023-02-15T01:37:56;40.85;;;19.08;;
25341;SDS011;13298;48.792;9.154;2023-02-15T01:40:23;36.15;;;19.13;;
25341;SDS011;13298;48.792;9.154;2023-02-15T01:42:50;32.75;;;18.45;;
25341;SDS011;13298;48.792;9.154;2023-02-15T01:45:24;32.17;;;18.33;;
25341;SDS011;13298;48.792;9.154;2023-02-15T01:47:58;33.97;;;18.80;;
25341;SDS011;13298;48.792;9.154;2023-02-15T01:50:30;35.05;;;18.75;;
25341;SDS011;13298;48.792;9.154;2023-02-15T01:56:00;32.72;;;18.45;;
25341;SDS011;13298;48.792;9.154;2023-02-15T02:00:58;35.25;;;17.33;;
25341;SDS011;13298;48.792;9.154;2023-02-15T02:03:50;29.33;;;16.83;;
25341;SDS011;13298;48.792;9.154;2023-02-15T02:06:14;32.92;;;17.48;;
25341;SDS011;13298;48.792;9.154;2023-02-15T02:08:40;31.65;;;17.02;;
25341;SDS011;13298;48.792;9.154;2023-02-15T02:11:11;28.52;;;16.70;;
25341;SDS011;13298;48.792;9.154;2023-02-15T02:13:40;29.02;;;16.90;;
25341;SDS011;13298;48.792;9.154;2023-02-15T02:16:23;32.33;;;17.13;;
25341;SDS011;13298;48.792;9.154;2023-02-15T02:33:20;33.25;;;17.48;;
25341;SDS011;13298;48.792;9.154;2023-02-15T02:41:50;31.13;;;16.73;;
25341;SDS011;13298;48.792;9.154;2023-02-15T02:44:25;30.98;;;16.20;;
25341;SDS011;13298;48.792;9.154;2023-02-15T02:47:02;31.67;;;17.50;;
25341;SDS011;13298;48.792;9.154;2023-02-15T02:49:52;34.90;;;16.45;;
25341;SDS011;13298;48.792;9.154;2023-02-15T02:52:38;33.33;;;17.92;;
25341;SDS011;13298;48.792;9.154;2023-02-15T02:55:13;33.70;;;18.88;;
25341;SDS011;13298;48.792;9.154;2023-02-15T02:57:52;29.95;;;17.02;;
25341;SDS011;13298;48.792;9.154;2023-02-15T03:00:30;29.85;;;16.20;;
25341;SDS011;13298;48.792;9.154;2023-02-15T03:03:05;33.42;;;16.83;;
25341;SDS011;13298;48.792;9.154;2023-02-15T03:05:54;29.35;;;16.90;;
25341;SDS011;13298;48.792;9.154;2023-02-15T03:08:23;32.17;;;17.10;;
25341;SDS011;13298;48.792;9.154;2023-02-15T03:10:58;29.55;;;16.55;;
25341;SDS011;13298;48.792;9.154;2023-02-15T03:13:27;33.50;;;17.48;;
25341;SDS011;13298;48.792;9.154;2023-02-15T03:15:53;31.77;;;17.10;;
25341;SDS011;13298;48.792;9.154;2023-02-15T03:18:44;33.50;;;17.33;;
25341;SDS011;13298;48.792;9.154;2023-02-15T03:21:17;29.83;;;16.85;;
25341;SDS011;13298;48.792;9.154;2023-02-15T03:23:54;31.70;;;17.25;;
25341;SDS011;13298;48.792;9.154;2023-02-15T03:26:26;32.15;;;18.35;;
25341;SDS011;13298;48.792;9.154;2023-02-15T03:28:54;31.02;;;16.90;;
25341;SDS011;13298;48.792;9.154;2023-02-15T03:31:23;33.55;;;18.35;;
25341;SDS011;13298;48.792;9.154;2023-02-15T03:33:56;30.25;;;15.52;;
25341;SDS011;13298;48.792;9.154;2023-02-15T03:39:28;37.30;;;17.40;;
25341;SDS011;13298;48.792;9.154;2023-02-15T03:42:10;34.58;;;16.73;;
25341;SDS011;13298;48.792;9.154;2023-02-15T03:44:59;33.70;;;15.98;;
25341;SDS011;13298;48.792;9.154;2023-02-15T03:47:36;31.58;;;16.50;;
25341;SDS011;13298;48.792;9.154;2023-02-15T03:50:13;29.63;;;16.85;;
25341;SDS011;13298;48.792;9.154;2023-02-15T03:53:05;27.92;;;15.93;;
25341;SDS011;13298;48.792;9.154;2023-02-15T03:55:34;31.92;;;16.45;;
25341;SDS011;13298;48.792;9.154;2023-02-15T03:58:01;28.25;;;15.38;;
25341;SDS011;13298;48.792;9.154;2023-02-15T04:00:49;28.73;;;15.00;;
25341;SDS011;13298;48.792;9.154;2023-02-15T04:04:14;32.20;;;16.60;;
25341;SDS011;13298;48.792;9.154;2023-02-15T04:06:46;29.23;;;16.50;;
25341;SDS011;13298;48.792;9.154;2023-02-15T04:09:12;28.23;;;15.27;;
25341;SDS011;13298;48.792;9.154;2023-02-15T04:11:57;30.98;;;16.45;;
25341;SDS011;13298;48.792;9.154;2023-02-15T04:14:23;30.67;;;16.50;;
25341;SDS011;13298;48.792;9.154;2023-02-15T04:17:08;29.80;;;15.82;;
25341;SDS011;13298;48.792;9.154;2023-02-15T04:19:34;33.67;;;17.23;;
25341;SDS011;13298;48.792;9.154;2023-02-15T04:22:19;30.20;;;16.50;;
25341;SDS011;13298;48.792;9.154;2023-02-15T04:25:03;28.42;;;16.40;;
25341;SDS011;13298;48.792;9.154;2023-02-15T04:27:40;33.13;;;16.90;;
25341;SDS011;13298;48.792;9.154;2023-02-15T04:30:21;33.30;;;16.48;;
25341;SDS011;13298;48.792;9.154;2023-02-15T04:32:49;32.72;;;17.30;;
25341;SDS011;13298;48.792;9.154;2023-02-15T04:35:16;30.30;;;16.83;;
25341;SDS011;13298;48.792;9.154;2023-02-15T04:37:43;30.00;;;15.93;;
25341;SDS011;13298;48.792;9.154;2023-02-15T04:40:10;33.20;;;17.13;;
25341;SDS011;13298;48.792;9.154;2023-02-15T04:42:38;29.15;;;15.80;;
25341;SDS011;13298;48.792;9.154;2023-02-15T04:45:04;28.00;;;15.93;;
25341;SDS011;13298;48.792;9.154;2023-02-15T04:47:30;29.25;;;14.90;;
25341;SDS011;13298;48.792;9.154;2023-02-15T04:49:56;30.63;;;16.02;;
25341;SDS011;13298;48.792;9.154;2023-02-15T04:52:21;28.50;;;15.18;;
25341;SDS011;13298;48.792;9.154;2023-02-15T04:54:47;27.63;;;15.82;;
25341;SDS011;13298;48.792;9.154;2023-02-15T04:57:13;26.10;;;15.65;;
25341;SDS011;13298;48.792;9.154;2023-02-15T04:59:39;28.73;;;15.85;;
25341;SDS011;13298;48.792;9.154;2023-02-15T05:02:04;27.08;;;14.82;;
25341;SDS011;13298;48.792;9.154;2023-02-15T05:04:30;26.13;;;15.13;;
25341;SDS011;13298;48.792;9.154;2023-02-15T05:06:56;30.73;;;16.15;;
25341;SDS011;13298;48.792;9.154;2023-02-15T05:09:22;29.70;;;16.38;;
25341;SDS011;13298;48.792;9.154;2023-02-15T05:11:47;30.15;;;15.82;;
25341;SDS011;13298;48.792;9.154;2023-02-15T05:14:13;27.55;;;15.38;;
25341;SDS011;13298;48.792;9.154;2023-02-15T05:16:39;27.50;;;15.27;;
25341;SDS011;13298;48.792;9.154;2023-02-15T05:19:04;26.50;;;15.20;;
25341;SDS011;13298;48.792;9.154;2023-02-15T05:21:31;30.13;;;16.10;;
25341;SDS011;13298;48.792;9.154;2023-02-15T05:23:57;29.30;;;15.57;;
25341;SDS011;13298;48.792;9.154;2023-02-15T05:26:23;29.65;;;15.95;;
25341;SDS011;13298;48.792;9.154;2023-02-15T05:29:09;29.80;;;14.57;;
25341;SDS011;13298;48.792;9.154;2023-02-15T05:31:35;28.92;;;15.48;;
25341;SDS011;13298;48.792;9.154;2023-02-15T05:34:01;28.02;;;15.10;;
25341;SDS011;13298;48.792;9.154;2023-02-15T05:36:27;28.70;;;15.18;;
25341;SDS011;13298;48.792;9.154;2023-02-15T05:38:53;28.90;;;15.82;;
25341;SDS011;13298;48.792;9.154;2023-02-15T05:41:19;27.05;;;14.90;;
25341;SDS011;13298;48.792;9.154;2023-02-15T05:43:45;28.75;;;15.35;;
25341;SDS011;13298;48.792;9.154;2023-02-15T05:46:11;27.77;;;14.85;;
25341;SDS011;13298;48.792;9.154;2023-02-15T05:48:37;34.22;;;15.73;;
25341;SDS011;13298;48.792;9.154;2023-02-15T05:51:04;27.02;;;15.07;;
25341;SDS011;13298;48.792;9.154;2023-02-15T05:53:34;27.17;;;14.13;;
25341;SDS011;13298;48.792;9.154;2023-02-15T05:56:02;29.77;;;15.05;;
25341;SDS011;13298;48.792;9.154;2023-02-15T05:58:30;30.15;;;15.45;;
25341;SDS011;13298;48.792;9.154;2023-02-15T06:00:58;29.33;;;15.75;;
25341;SDS011;13298;48.792;9.154;2023-02-15T06:03:24;31.98;;;16.25;;
25341;SDS011;13298;48.792;9.154;2023-02-15T06:05:53;30.25;;;16.05;;
25341;SDS011;13298;48.792;9.154;2023-02-15T06:08:18;27.42;;;14.95;;
25341;SDS011;13298;48.792;9.154;2023-02-15T06:10:45;30.52;;;15.20;;
25341;SDS011;13298;48.792;9.154;2023-02-15T06:13:11;24.85;;;14.13;;
25341;SDS011;13298;48.792;9.154;2023-02-15T06:15:37;29.70;;;16.15;;
25341;SDS011;13298;48.792;9.154;2023-02-15T06:18:03;30.83;;;15.40;;
25341;SDS011;13298;48.792;9.154;2023-02-15T06:20:28;28.52;;;15.15;;
25341;SDS011;13298;48.792;9.154;2023-02-15T06:22:54;29.80;;;15.63;;
25341;SDS011;13298;48.792;9.154;2023-02-15T06:25:20;27.15;;;14.63;;
25341;SDS011;13298;48.792;9.154;2023-02-15T06:27:46;27.00;;;15.30;;
25341;SDS011;13298;48.792;9.154;2023-02-15T06:30:12;28.45;;;15.38;;
25341;SDS011;13298;48.792;9.154;2023-02-15T06:32:38;28.73;;;15.07;;
25341;SDS011;13298;48.792;9.154;2023-02-15T06:35:05;30.52;;;14.90;;
25341;SDS011;13298;48.792;9.154;2023-02-15T06:37:31;26.10;;;14.13;;
25341;SDS011;13298;48.792;9.154;2023-02-15T06:39:57;26.55;;;14.85;;
25341;SDS011;13298;48.792;9.154;2023-02-15T06:42:23;26.42;;;15.40;;
25341;SDS011;13298;48.792;9.154;2023-02-15T06:44:49;29.58;;;15.60;;
25341;SDS011;13298;48.792;9.154;2023-02-15T06:47:15;25.05;;;14.63;;
25341;SDS011;13298;48.792;9.154;2023-02-15T06:49:40;29.73;;;14.68;;
25341;SDS011;13298;48.792;9.154;2023-02-15T06:52:06;27.15;;;14.77;;
25341;SDS011;13298;48.792;9.154;2023-02-15T06:54:32;27.95;;;15.15;;
25341;SDS011;13298;48.792;9.154;2023-02-15T06:56:58;28.83;;;15.15;;
25341;SDS011;13298;48.792;9.154;2023-02-15T06:59:23;27.90;;;14.70;;
25341;SDS011;13298;48.792;9.154;2023-02-15T07:01:49;28.42;;;16.80;;
25341;SDS011;13298;48.792;9.154;2023-02-15T07:04:15;29.05;;;15.25;;
25341;SDS011;13298;48.792;9.154;2023-02-15T07:06:41;34.75;;;15.57;;
25341;SDS011;13298;48.792;9.154;2023-02-15T07:09:06;29.30;;;14.32;;
25341;SDS011;13298;48.792;9.154;2023-02-15T07:11:33;32.35;;;16.42;;
25341;SDS011;13298;48.792;9.154;2023-02-15T07:14:17;27.95;;;16.15;;
25341;SDS011;13298;48.792;9.154;2023-02-15T07:16:43;28.80;;;15.98;;
25341;SDS011;13298;48.792;9.154;2023-02-15T07:19:09;31.40;;;15.52;;
25341;SDS011;13298;48.792;9.154;2023-02-15T07:21:35;32.35;;;16.35;;
25341;SDS011;13298;48.792;9.154;2023-02-15T07:24:01;28.85;;;16.40;;
25341;SDS011;13298;48.792;9.154;2023-02-15T07:26:28;27.75;;;15.23;;
25341;SDS011;13298;48.792;9.154;2023-02-15T07:28:54;30.38;;;15.52;;
25341;SDS011;13298;48.792;9.154;2023-02-15T07:31:20;33.80;;;16.58;;
25341;SDS011;13298;48.792;9.154;2023-02-15T07:33:45;27.70;;;15.20;;
25341;SDS011;13298;48.792;9.154;2023-02-15T07:36:11;29.67;;;15.48;;
25341;SDS011;13298;48.792;9.154;2023-02-15T07:38:38;33.28;;;17.27;;
25341;SDS011;13298;48.792;9.154;2023-02-15T07:41:06;30.58;;;15.90;;
25341;SDS011;13298;48.792;9.154;2023-02-15T07:43:35;30.58;;;16.35;;
25341;SDS011;13298;48.792;9.154;2023-02-15T07:46:08;33.20;;;16.98;;
25341;SDS011;13298;48.792;9.154;2023-02-15T07:48:37;44.83;;;20.00;;
25341;SDS011;13298;48.792;9.154;2023-02-15T07:51:05;38.20;;;19.25;;
25341;SDS011;13298;48.792;9.154;2023-02-15T07:53:32;37.60;;;18.75;;
25341;SDS011;13298;48.792;9.154;2023-02-15T07:55:59;33.35;;;17.23;;
25341;SDS011;13298;48.792;9.154;2023-02-15T07:58:31;35.92;;;17.85;;
25341;SDS011;13298;48.792;9.154;2023-02-15T08:01:16;46.28;;;20.80;;
25341;SDS011;13298;48.792;9.154;2023-02-15T08:03:48;44.63;;;20.38;;
25341;SDS011;13298;48.792;9.154;2023-02-15T08:06:14;40.35;;;20.60;;
25341;SDS011;13298;48.792;9.154;2023-02-15T08:08:41;43.25;;;21.05;;
25341;SDS011;13298;48.792;9.154;2023-02-15T08:13:54;49.22;;;20.33;;
25341;SDS011;13298;48.792;9.154;2023-02-15T08:18:51;39.63;;;19.13;;
25341;SDS011;13298;48.792;9.154;2023-02-15T08:21:18;37.38;;;18.48;;
25341;SDS011;13298;48.792;9.154;2023-02-15T08:23:44;35.00;;;18.47;;
25341;SDS011;13298;48.792;9.154;2023-02-15T08:26:11;34.53;;;19.27;;
25341;SDS011;13298;48.792;9.154;2023-02-15T08:28:37;36.90;;;19.00;;
25341;SDS011;13298;48.792;9.154;2023-02-15T08:31:09;39.85;;;19.45;;
25341;SDS011;13298;48.792;9.154;2023-02-15T08:33:37;34.92;;;18.42;;
25341;SDS011;13298;48.792;9.154;2023-02-15T08:36:08;35.90;;;19.13;;
25341;SDS011;13298;48.792;9.154;2023-02-15T08:38:43;33.40;;;18.70;;
25341;SDS011;13298;48.792;9.154;2023-02-15T08:41:28;36.30;;;18.65;;
25341;SDS011;13298;48.792;9.154;2023-02-15T08:46:35;37.60;;;18.10;;
25341;SDS011;13298;48.792;9.154;2023-02-15T08:49:04;33.42;;;17.10;;
25341;SDS011;13298;48.792;9.154;2023-02-15T08:51:31;34.88;;;19.10;;
25341;SDS011;13298;48.792;9.154;2023-02-15T08:54:00;61.42;;;21.48;;
25341;SDS011;13298;48.792;9.154;2023-02-15T08:56:29;33.40;;;19.25;;
25341;SDS011;13298;48.792;9.154;2023-02-15T08:59:03;35.70;;;18.88;;
25341;SDS011;13298;48.792;9.154;2023-02-15T09:01:31;36.25;;;20.27;;
25341;SDS011;13298;48.792;9.154;2023-02-15T09:03:59;38.00;;;20.90;;
25341;SDS011;13298;48.792;9.154;2023-02-15T09:06:29;38.60;;;20.33;;
25341;SDS011;13298;48.792;9.154;2023-02-15T09:08:54;32.70;;;18.85;;
25341;SDS011;13298;48.792;9.154;2023-02-15T09:11:22;35.63;;;19.63;;
25341;SDS011;13298;48.792;9.154;2023-02-15T09:13:53;41.88;;;19.65;;
25341;SDS011;13298;48.792;9.154;2023-02-15T09:16:22;43.13;;;21.08;;
25341;SDS011;13298;48.792;9.154;2023-02-15T09:18:50;35.97;;;21.08;;
25341;SDS011;13298;48.792;9.154;2023-02-15T09:21:18;37.85;;;21.00;;
25341;SDS011;13298;48.792;9.154;2023-02-15T09:23:47;35.03;;;20.38;;
25341;SDS011;13298;48.792;9.154;2023-02-15T09:26:17;39.08;;;21.95;;
25341;SDS011;13298;48.792;9.154;2023-02-15T09:28:46;38.53;;;22.23;;
25341;SDS011;13298;48.792;9.154;2023-02-15T09:31:20;39.35;;;22.10;;
25341;SDS011;13298;48.792;9.154;2023-02-15T09:33:51;38.80;;;20.85;;
25341;SDS011;13298;48.792;9.154;2023-02-15T09:39:13;45.17;;;23.10;;
25341;SDS011;13298;48.792;9.154;2023-02-15T09:53:29;38.42;;;21.77;;
25341;SDS011;13298;48.792;9.154;2023-02-15T10:04:31;44.88;;;24.50;;
25341;SDS011;13298;48.792;9.154;2023-02-15T10:10:05;43.63;;;24.42;;
25341;SDS011;13298;48.792;9.154;2023-02-15T10:13:08;41.70;;;23.65;;
25341;SDS011;13298;48.792;9.154;2023-02-15T10:16:06;43.97;;;24.63;;
25341;SDS011;13298;48.792;9.154;2023-02-15T10:18:53;43.40;;;25.23;;
25341;SDS011;13298;48.792;9.154;2023-02-15T10:21:46;41.50;;;23.95;;
25341;SDS011;13298;48.792;9.154;2023-02-15T10:24:51;43.28;;;22.40;;
25341;SDS011;13298;48.792;9.154;2023-02-15T10:27:55;42.38;;;24.02;;
25341;SDS011;13298;48.792;9.154;2023-02-15T10:30:42;48.92;;;25.17;;
25341;SDS011;13298;48.792;9.154;2023-02-15T10:36:18;43.15;;;25.20;;
25341;SDS011;13298;48.792;9.154;2023-02-15T10:45:14;40.83;;;24.58;;
25341;SDS011;13298;48.792;9.154;2023-02-15T10:51:16;38.85;;;23.13;;
25341;SDS011;13298;48.792;9.154;2023-02-15T11:02:27;37.33;;;23.33;;
25341;SDS011;13298;48.792;9.154;2023-02-15T11:05:24;42.17;;;23.95;;
25341;SDS011;13298;48.792;9.154;2023-02-15T11:08:02;38.83;;;21.58;;
25341;SDS011;13298;48.792;9.154;2023-02-15T11:13:13;33.80;;;20.83;;
25341;SDS011;13298;48.792;9.154;2023-02-15T11:15:51;37.78;;;20.35;;
25341;SDS011;13298;48.792;9.154;2023-02-15T11:18:25;35.78;;;22.38;;
25341;SDS011;13298;48.792;9.154;2023-02-15T11:23:47;42.40;;;21.10;;
25341;SDS011;13298;48.792;9.154;2023-02-15T11:31:41;34.67;;;20.67;;
25341;SDS011;13298;48.792;9.154;2023-02-15T11:34:21;39.60;;;19.05;;
25341;SDS011;13298;48.792;9.154;2023-02-15T11:36:52;38.45;;;20.85;;
25341;SDS011;13298;48.792;9.154;2023-02-15T11:39:20;36.55;;;20.90;;
25341;SDS011;13298;48.792;9.154;2023-02-15T11:41:52;35.92;;;21.45;;
25341;SDS011;13298;48.792;9.154;2023-02-15T11:44:22;38.70;;;21.83;;
25341;SDS011;13298;48.792;9.154;2023-02-15T11:51:58;36.10;;;21.17;;
25341;SDS011;13298;48.792;9.154;2023-02-15T11:54:30;33.47;;;21.70;;
25341;SDS011;13298;48.792;9.154;2023-02-15T11:57:02;35.05;;;21.33;;
25341;SDS011;13298;48.792;9.154;2023-02-15T11:59:47;36.28;;;22.65;;
25341;SDS011;13298;48.792;9.154;2023-02-15T12:02:21;34.88;;;21.55;;
25341;SDS011;13298;48.792;9.154;2023-02-15T12:04:52;30.15;;;20.13;;
25341;SDS011;13298;48.792;9.154;2023-02-15T12:07:30;35.83;;;21.15;;
25341;SDS011;13298;48.792;9.154;2023-02-15T12:13:10;40.25;;;22.52;;
25341;SDS011;13298;48.792;9.154;2023-02-15T12:15:40;32.28;;;20.75;;
25341;SDS011;13298;48.792;9.154;2023-02-15T12:18:19;41.28;;;22.55;;
25341;SDS011;13298;48.792;9.154;2023-02-15T12:21:11;36.05;;;22.25;;
25341;SDS011;13298;48.792;9.154;2023-02-15T12:23:51;39.17;;;22.92;;
25341;SDS011;13298;48.792;9.154;2023-02-15T12:26:24;42.30;;;23.20;;
25341;SDS011;13298;48.792;9.154;2023-02-15T12:29:07;36.28;;;22.67;;
25341;SDS011;13298;48.792;9.154;2023-02-15T12:31:45;40.40;;;22.42;;
25341;SDS011;13298;48.792;9.154;2023-02-15T12:34:22;35.67;;;20.85;;
25341;SDS011;13298;48.792;9.154;2023-02-15T12:37:08;35.60;;;21.35;;
25341;SDS011;13298;48.792;9.154;2023-02-15T12:39:50;41.92;;;23.45;;
25341;SDS011;13298;48.792;9.154;2023-02-15T12:42:19;35.35;;;21.48;;
25341;SDS011;13298;48.792;9.154;2023-02-15T12:44:55;36.10;;;22.25;;
25341;SDS011;13298;48.792;9.154;2023-02-15T12:47:27;28.75;;;20.00;;
25341;SDS011;13298;48.792;9.154;2023-02-15T12:50:12;33.65;;;21.60;;
25341;SDS011;13298;48.792;9.154;2023-02-15T12:52:49;34.83;;;20.85;;
25341;SDS011;13298;48.792;9.154;2023-02-15T12:55:18;40.30;;;21.90;;
25341;SDS011;13298;48.792;9.154;2023-02-15T12:58:07;30.98;;;19.48;;
25341;SDS011;13298;48.792;9.154;2023-02-15T13:00:44;29.48;;;18.88;;
25341;SDS011;13298;48.792;9.154;2023-02-15T13:03:18;35.80;;;21.33;;
25341;SDS011;13298;48.792;9.154;2023-02-15T13:05:47;38.08;;;21.95;;
25341;SDS011;13298;48.792;9.154;2023-02-15T13:10:59;40.17;;;21.83;;
25341;SDS011;13298;48.792;9.154;2023-02-15T13:13:30;33.80;;;19.02;;
25341;SDS011;13298;48.792;9.154;2023-02-15T13:16:00;32.35;;;20.73;;
25341;SDS011;13298;48.792;9.154;2023-02-15T13:18:31;36.60;;;21.47;;
25341;SDS011;13298;48.792;9.154;2023-02-15T13:21:20;35.35;;;20.83;;
25341;SDS011;13298;48.792;9.154;2023-02-15T13:23:55;33.97;;;20.92;;
25341;SDS011;13298;48.792;9.154;2023-02-15T13:26:26;36.58;;;19.85;;
25341;SDS011;13298;48.792;9.154;2023-02-15T13:28:57;34.22;;;19.83;;
25341;SDS011;13298;48.792;9.154;2023-02-15T13:31:35;30.70;;;19.25;;
25341;SDS011;13298;48.792;9.154;2023-02-15T13:34:03;33.80;;;21.42;;
25341;SDS011;13298;48.792;9.154;2023-02-15T13:39:47;33.83;;;19.92;;
25341;SDS011;13298;48.792;9.154;2023-02-15T13:42:30;32.20;;;20.63;;
25341;SDS011;13298;48.792;9.154;2023-02-15T13:56:43;30.85;;;18.83;;
25341;SDS011;13298;48.792;9.154;2023-02-15T14:02:58;33.58;;;20.50;;
25341;SDS011;13298;48.792;9.154;2023-02-15T14:11:56;30.40;;;17.40;;
25341;SDS011;13298;48.792;9.154;2023-02-15T14:14:44;32.42;;;20.02;;
25341;SDS011;13298;48.792;9.154;2023-02-15T14:29:59;34.80;;;19.67;;
25341;SDS011;13298;48.792;9.154;2023-02-15T14:32:35;30.40;;;18.25;;
25341;SDS011;13298;48.792;9.154;2023-02-15T14:35:15;32.20;;;18.85;;
25341;SDS011;13298;48.792;9.154;2023-02-15T14:43:55;30.40;;;19.25;;
25341;SDS011;13298;48.792;9.154;2023-02-15T14:49:48;32.72;;;19.88;;
25341;SDS011;13298;48.792;9.154;2023-02-15T14:52:13;33.80;;;18.52;;
25341;SDS011;13298;48.792;9.154;2023-02-15T15:07:23;27.13;;;16.55;;
25341;SDS011;13298;48.792;9.154;2023-02-15T15:10:03;26.92;;;16.55;;
25341;SDS011;13298;48.792;9.154;2023-02-15T15:12:41;25.35;;;16.50;;
25341;SDS011;13298;48.792;9.154;2023-02-15T15:15:12;23.90;;;15.40;;
25341;SDS011;13298;48.792;9.154;2023-02-15T15:17:58;27.38;;;16.35;;
25341;SDS011;13298;48.792;9.154;2023-02-15T15:23:33;24.80;;;15.50;;
25341;SDS011;13298;48.792;9.154;2023-02-15T15:31:00;28.45;;;16.80;;
25341;SDS011;13298;48.792;9.154;2023-02-15T15:45:38;24.35;;;15.80;;
25341;SDS011;13298;48.792;9.154;2023-02-15T15:48:28;24.48;;;14.82;;
25341;SDS011;13298;48.792;9.154;2023-02-15T15:51:20;22.80;;;13.68;;
25341;SDS011;13298;48.792;9.154;2023-02-15T15:53:53;23.98;;;14.00;;
25341;SDS011;13298;48.792;9.154;2023-02-15T15:56:21;24.98;;;14.40;;
25341;SDS011;13298;48.792;9.154;2023-02-15T15:58:54;23.45;;;14.75;;
25341;SDS011;13298;48.792;9.154;2023-02-15T16:01:29;24.00;;;14.10;;
25341;SDS011;13298;48.792;9.154;2023-02-15T16:04:00;21.45;;;14.13;;
25341;SDS011;13298;48.792;9.154;2023-02-15T16:06:36;22.15;;;14.20;;
25341;SDS011;13298;48.792;9.154;2023-02-15T16:11:45;22.95;;;13.88;;
25341;SDS011;13298;48.792;9.154;2023-02-15T16:14:26;22.55;;;13.63;;
25341;SDS011;13298;48.792;9.154;2023-02-15T16:17:00;25.80;;;13.15;;
25341;SDS011;13298;48.792;9.154;2023-02-15T16:19:38;23.10;;;13.52;;
25341;SDS011;13298;48.792;9.154;2023-02-15T16:22:07;25.08;;;13.52;;
25341;SDS011;13298;48.792;9.154;2023-02-15T16:30:16;22.05;;;13.55;;
25341;SDS011;13298;48.792;9.154;2023-02-15T16:35:32;21.35;;;13.75;;
25341;SDS011;13298;48.792;9.154;2023-02-15T16:37:59;21.90;;;13.68;;
25341;SDS011;13298;48.792;9.154;2023-02-15T16:40:26;22.95;;;14.63;;
25341;SDS011;13298;48.792;9.154;2023-02-15T16:43:17;20.77;;;13.80;;
25341;SDS011;13298;48.792;9.154;2023-02-15T16:45:50;23.30;;;14.73;;
25341;SDS011;13298;48.792;9.154;2023-02-15T16:48:23;29.95;;;17.95;;
25341;SDS011;13298;48.792;9.154;2023-02-15T16:50:51;25.52;;;16.38;;
25341;SDS011;13298;48.792;9.154;2023-02-15T16:53:25;27.27;;;17.23;;
25341;SDS011;13298;48.792;9.154;2023-02-15T16:55:54;27.27;;;17.15;;
25341;SDS011;13298;48.792;9.154;2023-02-15T16:58:26;27.90;;;17.35;;
25341;SDS011;13298;48.792;9.154;2023-02-15T17:01:14;29.48;;;17.40;;
25341;SDS011;13298;48.792;9.154;2023-02-15T17:03:40;31.35;;;17.73;;
25341;SDS011;13298;48.792;9.154;2023-02-15T17:06:20;24.40;;;14.98;;
25341;SDS011;13298;48.792;9.154;2023-02-15T17:08:50;23.55;;;14.93;;
25341;SDS011;13298;48.792;9.154;2023-02-15T17:11:20;26.08;;;15.65;;
25341;SDS011;13298;48.792;9.154;2023-02-15T17:16:28;21.08;;;14.27;;
25341;SDS011;13298;48.792;9.154;2023-02-15T17:18:58;25.45;;;15.13;;
25341;SDS011;13298;48.792;9.154;2023-02-15T17:21:33;25.38;;;14.82;;
25341;SDS011;13298;48.792;9.154;2023-02-15T17:24:15;22.05;;;14.23;;
25341;SDS011;13298;48.792;9.154;2023-02-15T17:26:48;26.10;;;14.52;;
25341;SDS011;13298;48.792;9.154;2023-02-15T17:31:59;23.17;;;13.93;;
25341;SDS011;13298;48.792;9.154;2023-02-15T17:34:40;23.65;;;14.95;;
25341;SDS011;13298;48.792;9.154;2023-02-15T17:40:07;125.05;;;59.00;;
25341;SDS011;13298;48.792;9.154;2023-02-15T17:42:49;95.70;;;48.38;;
25341;SDS011;13298;48.792;9.154;2023-02-15T17:45:15;46.50;;;26.58;;
25341;SDS011;13298;48.792;9.154;2023-02-15T17:47:42;37.95;;;21.58;;
25341;SDS011;13298;48.792;9.154;2023-02-15T17:50:10;30.67;;;18.40;;
25341;SDS011;13298;48.792;9.154;2023-02-15T17:52:45;28.83;;;17.73;;
25341;SDS011;13298;48.792;9.154;2023-02-15T17:55:15;34.35;;;19.50;;
25341;SDS011;13298;48.792;9.154;2023-02-15T17:58:00;27.58;;;18.10;;
25341;SDS011;13298;48.792;9.154;2023-02-15T18:00:28;28.85;;;17.38;;
25341;SDS011;13298;48.792;9.154;2023-02-15T18:03:18;30.35;;;17.27;;
25341;SDS011;13298;48.792;9.154;2023-02-15T18:06:02;30.00;;;17.73;;
25341;SDS011;13298;48.792;9.154;2023-02-15T18:08:47;29.05;;;18.35;;
25341;SDS011;13298;48.792;9.154;2023-02-15T18:11:31;30.10;;;17.55;;
25341;SDS011;13298;48.792;9.154;2023-02-15T18:14:11;29.77;;;18.55;;